Time;durP1;ratioP1;P1;durP2;ratioP2;P2;SDS_P1;SDS_P2;PMS_P1;PMS_P2;Temp;Humidity;BMP_temperature;BMP_pressure;BME280_temperature;BME280_humidity;BME280_pressure;Samples;Min_cycle;Max_cycle;Signal;HPM_P1;HPM_P2
2023/03/12 00:00:29;;;;;;;10.23;5.22;;;-0.30;99.90;;;;;;5071501;28;20083;-71
2023/03/12 00:02:55;;;;;;;12.75;4.93;;;-0.30;99.90;;;;;;5061285;28;20389;-71
2023/03/12 00:05:21;;;;;;;11.00;4.35;;;-0.30;99.90;;;;;;5069214;28;20566;-71
2023/03/12 00:07:47;;;;;;;10.50;4.90;;;-0.30;99.90;;;;;;5064420;28;20041;-71
2023/03/12 00:10:13;;;;;;;12.40;4.63;;;-0.40;99.90;;;;;;5062667;28;20045;-69
2023/03/12 00:12:39;;;;;;;11.98;4.68;;;-0.40;99.90;;;;;;5074753;28;20109;-70
2023/03/12 00:15:05;;;;;;;7.80;4.03;;;-0.40;99.90;;;;;;5071025;28;20047;-70
2023/03/12 00:17:31;;;;;;;14.07;4.53;;;-0.40;99.90;;;;;;5076144;28;20040;-70
2023/03/12 00:19:57;;;;;;;9.75;4.15;;;-0.50;99.90;;;;;;5074150;28;20037;-70
2023/03/12 00:22:24;;;;;;;24.00;5.30;;;-0.50;99.90;;;;;;5068783;28;20048;-70
2023/03/12 00:24:54;;;;;;;11.18;4.45;;;-0.50;99.90;;;;;;5072118;28;20052;-70
2023/03/12 00:27:21;;;;;;;12.57;5.45;;;-0.50;99.90;;;;;;5069269;28;20044;-70
2023/03/12 00:29:47;;;;;;;9.90;4.55;;;-0.60;99.90;;;;;;5071106;28;20093;-70
2023/03/12 00:32:13;;;;;;;11.93;5.10;;;-0.60;99.90;;;;;;5070816;28;20123;-70
2023/03/12 00:34:38;;;;;;;11.82;4.72;;;-0.40;99.90;;;;;;5074154;28;20040;-69
2023/03/12 00:37:04;;;;;;;10.55;4.43;;;-0.60;99.90;;;;;;5059888;28;20378;-69
2023/03/12 00:39:30;;;;;;;11.63;4.80;;;-0.60;99.90;;;;;;5074064;28;20068;-70
2023/03/12 00:41:56;;;;;;;13.38;4.95;;;-0.60;99.90;;;;;;5056353;28;20048;-70
2023/03/12 00:44:22;;;;;;;13.68;4.75;;;-0.70;99.90;;;;;;5061827;28;20505;-70
2023/03/12 00:46:47;;;;;;;11.35;4.95;;;-0.70;99.90;;;;;;5067781;28;20041;-69
2023/03/12 00:49:13;;;;;;;12.55;4.47;;;-0.70;99.90;;;;;;5068974;28;20044;-70
2023/03/12 00:51:38;;;;;;;16.30;4.90;;;-0.70;99.90;;;;;;5068008;28;20139;-70
2023/03/12 00:54:04;;;;;;;9.15;4.47;;;-0.50;99.90;;;;;;5064174;28;20094;-70
2023/03/12 00:56:30;;;;;;;10.50;4.15;;;-0.80;99.90;;;;;;5064987;28;20045;-70
2023/03/12 00:58:56;;;;;;;8.30;4.18;;;-0.70;99.90;;;;;;5064914;28;20051;-69
2023/03/12 01:01:21;;;;;;;8.45;3.85;;;-0.80;99.90;;;;;;5068610;28;20047;-70
2023/03/12 01:03:48;;;;;;;13.88;4.50;;;-0.80;99.90;;;;;;5064254;28;20036;-69
2023/03/12 01:06:14;;;;;;;8.98;4.32;;;-0.70;99.90;;;;;;5073093;28;20131;-70
2023/03/12 01:08:39;;;;;;;12.05;4.95;;;-0.80;99.90;;;;;;5072190;28;20052;-70
2023/03/12 01:11:05;;;;;;;13.02;4.63;;;-0.80;99.90;;;;;;5072811;28;20075;-69
2023/03/12 01:13:31;;;;;;;9.85;4.20;;;-0.80;99.90;;;;;;5063604;28;20036;-69
2023/03/12 01:15:56;;;;;;;9.20;4.40;;;-0.80;99.90;;;;;;5073722;28;20044;-69
2023/03/12 01:18:22;;;;;;;14.63;5.28;;;-0.80;99.90;;;;;;5072849;28;20041;-69
2023/03/12 01:20:48;;;;;;;9.48;4.68;;;-0.80;99.90;;;;;;5070159;28;20059;-69
2023/03/12 01:23:15;;;;;;;8.30;4.82;;;-0.50;99.90;;;;;;5073428;28;20072;-70
2023/03/12 01:25:41;;;;;;;8.18;4.57;;;-0.70;99.90;;;;;;5072311;28;20044;-70
2023/03/12 01:28:07;;;;;;;13.68;4.63;;;-0.70;99.90;;;;;;5070972;28;20101;-70
2023/03/12 01:30:32;;;;;;;12.65;4.65;;;-0.70;99.90;;;;;;5070379;28;20048;-70
2023/03/12 01:32:58;;;;;;;14.73;4.93;;;-0.70;99.90;;;;;;5066955;28;20040;-69
2023/03/12 01:35:24;;;;;;;7.60;4.47;;;-0.60;99.90;;;;;;5070557;28;20041;-70
2023/03/12 01:37:50;;;;;;;10.48;4.45;;;-0.60;99.90;;;;;;5061449;28;20475;-70
2023/03/12 01:40:24;;;;;;;10.07;4.50;;;-0.60;99.90;;;;;;5068378;28;20045;-69
2023/03/12 01:42:57;;;;;;;8.77;4.68;;;-0.60;99.90;;;;;;5063757;28;20055;-70
2023/03/12 01:45:56;;;;;;;13.40;5.65;;;-0.70;99.90;;;;;;5072682;28;20045;-70
2023/03/12 01:48:23;;;;;;;10.20;4.78;;;-0.70;99.90;;;;;;5062367;28;20039;-70
2023/03/12 01:50:48;;;;;;;10.70;4.55;;;-0.70;99.90;;;;;;5068287;28;20179;-70
2023/03/12 01:53:14;;;;;;;13.45;4.93;;;-0.70;99.90;;;;;;5067006;28;20917;-69
2023/03/12 01:55:40;;;;;;;11.77;4.53;;;-0.70;99.90;;;;;;5071105;28;21662;-69
2023/03/12 01:58:07;;;;;;;13.43;4.70;;;-0.70;99.90;;;;;;5065815;28;20054;-69
2023/03/12 02:00:32;;;;;;;7.53;4.55;;;-0.60;99.90;;;;;;5070810;28;20036;-69
2023/03/12 02:03:04;;;;;;;14.90;5.22;;;-0.50;99.90;;;;;;5057639;28;20049;-69
2023/03/12 02:05:50;;;;;;;10.63;5.28;;;-0.50;99.90;;;;;;5071079;28;20468;-70
2023/03/12 02:08:17;;;;;;;12.93;5.63;;;-0.50;99.90;;;;;;5052229;28;20045;-70
2023/03/12 02:10:43;;;;;;;12.75;6.00;;;-0.40;99.90;;;;;;5062112;28;20375;-69
2023/03/12 02:13:10;;;;;;;12.55;5.20;;;-0.40;99.90;;;;;;5069676;28;20539;-69
2023/03/12 02:15:37;;;;;;;11.30;4.72;;;-0.30;99.90;;;;;;5072319;28;20401;-69
2023/03/12 02:18:04;;;;;;;10.63;5.00;;;-0.30;99.90;;;;;;5071798;28;20051;-70
2023/03/12 02:20:48;;;;;;;10.93;4.95;;;-0.20;99.90;;;;;;5069785;28;20049;-70
2023/03/12 02:23:17;;;;;;;10.18;4.65;;;-0.20;99.90;;;;;;5068442;28;20043;-70
2023/03/12 02:25:47;;;;;;;13.07;4.70;;;-0.20;99.90;;;;;;5071591;28;20428;-69
2023/03/12 02:28:15;;;;;;;12.40;4.57;;;-0.20;99.90;;;;;;5061928;28;20569;-69
2023/03/12 02:30:44;;;;;;;11.38;4.35;;;-0.10;99.90;;;;;;5068041;28;20493;-69
2023/03/12 02:33:10;;;;;;;12.63;4.25;;;-0.10;99.90;;;;;;5070874;28;20041;-69
2023/03/12 02:35:37;;;;;;;11.02;4.32;;;0.00;99.90;;;;;;5069363;28;20045;-70
2023/03/12 02:38:23;;;;;;;8.65;4.60;;;0.00;99.90;;;;;;5070322;28;20544;-70
2023/03/12 02:40:50;;;;;;;9.13;4.35;;;0.00;99.90;;;;;;5060897;28;20048;-70
2023/03/12 02:43:18;;;;;;;10.05;4.25;;;0.10;99.90;;;;;;5061507;28;20528;-69
2023/03/12 02:45:43;;;;;;;13.02;4.88;;;0.10;99.90;;;;;;5070586;28;20045;-70
2023/03/12 02:48:09;;;;;;;8.23;3.72;;;0.20;99.90;;;;;;5065668;28;20041;-69
2023/03/12 02:50:35;;;;;;;13.50;4.80;;;0.20;99.90;;;;;;5059270;28;20052;-69
2023/03/12 02:53:00;;;;;;;7.95;4.20;;;0.20;99.90;;;;;;5070067;28;20044;-69
2023/03/12 02:55:26;;;;;;;7.80;4.15;;;0.20;99.90;;;;;;5071306;28;20094;-70
2023/03/12 02:57:52;;;;;;;6.32;3.60;;;0.20;99.90;;;;;;5071283;28;20046;-69
2023/03/12 03:00:18;;;;;;;7.80;3.80;;;0.20;99.90;;;;;;5070758;28;20486;-69
2023/03/12 03:02:44;;;;;;;12.95;4.15;;;0.30;99.90;;;;;;5070765;28;20517;-70
2023/03/12 03:05:12;;;;;;;8.75;4.03;;;0.30;99.90;;;;;;5074455;28;20128;-69
2023/03/12 03:07:38;;;;;;;14.85;4.05;;;0.40;99.90;;;;;;5072813;28;20045;-69
2023/03/12 03:10:05;;;;;;;8.15;3.40;;;0.40;99.90;;;;;;5073832;28;20040;-69
2023/03/12 03:12:32;;;;;;;6.75;3.67;;;0.40;99.90;;;;;;5072029;28;20051;-69
2023/03/12 03:14:57;;;;;;;8.60;3.65;;;0.40;99.90;;;;;;5067813;28;20045;-69
2023/03/12 03:17:24;;;;;;;10.15;3.70;;;0.40;99.90;;;;;;5069259;28;20056;-69
2023/03/12 03:19:50;;;;;;;10.27;3.50;;;0.50;99.90;;;;;;5073039;28;20041;-69
2023/03/12 03:22:17;;;;;;;11.50;3.80;;;0.50;99.90;;;;;;5067002;28;20123;-69
2023/03/12 03:24:42;;;;;;;8.48;3.55;;;0.50;99.90;;;;;;5069537;28;20041;-69
2023/03/12 03:27:08;;;;;;;7.05;3.65;;;0.50;99.90;;;;;;5072203;28;20542;-71
2023/03/12 03:29:34;;;;;;;8.55;4.15;;;0.50;99.90;;;;;;5072830;28;20041;-70
2023/03/12 03:32:00;;;;;;;8.38;3.95;;;0.50;99.90;;;;;;5065415;28;20044;-70
2023/03/12 03:34:25;;;;;;;11.43;5.10;;;0.50;99.90;;;;;;5071491;28;20036;-70
2023/03/12 03:36:51;;;;;;;8.27;4.28;;;0.50;99.90;;;;;;5072462;28;20060;-70
2023/03/12 03:39:16;;;;;;;10.02;4.43;;;0.50;99.90;;;;;;5072111;28;20040;-70
2023/03/12 03:41:42;;;;;;;10.55;5.50;;;0.50;99.90;;;;;;5073312;28;20032;-70
2023/03/12 03:44:08;;;;;;;10.20;4.38;;;0.50;99.90;;;;;;5072868;28;20048;-70
2023/03/12 03:46:34;;;;;;;12.07;4.05;;;0.50;99.90;;;;;;5073102;28;20102;-70
2023/03/12 03:49:01;;;;;;;5.68;3.55;;;0.50;99.90;;;;;;5062614;28;20060;-70
2023/03/12 03:51:27;;;;;;;13.15;3.80;;;0.50;99.90;;;;;;5070496;28;20069;-70
2023/03/12 03:53:53;;;;;;;6.30;3.42;;;0.50;99.90;;;;;;5070567;28;20481;-68
2023/03/12 03:56:18;;;;;;;6.20;3.90;;;0.50;99.90;;;;;;5071604;28;20059;-69
2023/03/12 03:58:44;;;;;;;8.90;3.97;;;0.50;99.90;;;;;;5066480;28;20047;-70
2023/03/12 04:01:12;;;;;;;6.07;3.65;;;0.50;99.90;;;;;;5065088;28;20132;-69
2023/03/12 04:03:38;;;;;;;9.77;3.47;;;0.60;99.90;;;;;;5070548;28;20036;-70
2023/03/12 04:06:05;;;;;;;9.60;3.92;;;0.60;99.90;;;;;;5071102;28;20039;-70
2023/03/12 04:08:34;;;;;;;8.10;3.50;;;0.60;99.90;;;;;;5071046;28;20068;-70
2023/03/12 04:11:06;;;;;;;17.55;3.85;;;0.60;99.90;;;;;;5069656;28;20044;-70
2023/03/12 04:13:32;;;;;;;5.22;3.42;;;0.60;99.90;;;;;;5066700;28;20048;-70
2023/03/12 04:15:57;;;;;;;10.45;3.50;;;0.60;99.90;;;;;;5070903;28;20052;-70
2023/03/12 04:18:23;;;;;;;8.10;4.07;;;0.60;99.90;;;;;;5071777;28;20036;-70
2023/03/12 04:20:49;;;;;;;8.05;3.25;;;0.60;99.90;;;;;;5069791;28;20047;-70
2023/03/12 04:23:14;;;;;;;5.50;3.10;;;0.60;99.90;;;;;;5068313;28;20036;-70
2023/03/12 04:25:40;;;;;;;7.18;3.58;;;0.60;99.90;;;;;;5071808;28;20063;-70
2023/03/12 04:28:06;;;;;;;9.27;3.40;;;0.60;99.90;;;;;;5067009;28;20052;-70
2023/03/12 04:30:31;;;;;;;6.60;3.40;;;0.60;99.90;;;;;;5069453;28;20437;-70
2023/03/12 04:32:57;;;;;;;7.22;3.45;;;0.70;99.90;;;;;;5067022;28;20563;-70
2023/03/12 04:35:23;;;;;;;14.90;4.22;;;0.60;99.90;;;;;;5070275;28;20424;-69
2023/03/12 04:37:50;;;;;;;6.35;3.53;;;0.70;99.90;;;;;;5068376;28;20387;-70
2023/03/12 04:40:18;;;;;;;8.40;3.72;;;0.60;99.90;;;;;;5068001;28;20103;-70
2023/03/12 04:42:43;;;;;;;9.55;3.97;;;0.60;99.90;;;;;;5064402;28;20090;-70
2023/03/12 04:45:10;;;;;;;8.75;3.80;;;0.60;99.90;;;;;;5052621;28;20041;-70
2023/03/12 04:47:35;;;;;;;10.60;4.35;;;0.60;99.90;;;;;;5071354;28;20033;-70
2023/03/12 04:50:01;;;;;;;8.82;3.70;;;0.60;99.90;;;;;;5060361;28;20555;-69
2023/03/12 04:52:27;;;;;;;7.38;3.65;;;0.70;99.90;;;;;;5069904;28;20060;-69
2023/03/12 04:54:53;;;;;;;12.63;4.22;;;0.70;99.90;;;;;;5073785;28;20033;-69
2023/03/12 04:57:19;;;;;;;9.55;3.85;;;0.60;99.90;;;;;;5070291;28;20589;-69
2023/03/12 04:59:45;;;;;;;11.75;4.10;;;0.60;99.90;;;;;;5062486;28;20048;-69
2023/03/12 05:02:10;;;;;;;14.55;4.38;;;0.60;99.90;;;;;;5066398;28;20044;-69
2023/03/12 05:04:36;;;;;;;12.13;3.83;;;0.60;99.90;;;;;;5072242;28;20040;-69
2023/03/12 05:07:02;;;;;;;11.35;3.75;;;0.60;99.90;;;;;;5070707;28;20387;-69
2023/03/12 05:09:28;;;;;;;10.18;4.60;;;0.60;99.90;;;;;;5070212;28;20041;-69
2023/03/12 05:11:53;;;;;;;8.10;4.22;;;0.60;99.90;;;;;;5065697;28;20047;-69
2023/03/12 05:14:19;;;;;;;9.20;4.13;;;0.60;99.90;;;;;;5071300;28;20037;-70
2023/03/12 05:16:45;;;;;;;10.23;4.18;;;0.60;99.90;;;;;;5064009;28;20373;-69
2023/03/12 05:19:11;;;;;;;10.95;4.53;;;0.60;99.90;;;;;;5068163;28;20075;-70
2023/03/12 05:21:38;;;;;;;8.57;3.88;;;0.60;99.90;;;;;;5069122;28;20123;-70
2023/03/12 05:24:04;;;;;;;13.23;4.30;;;0.60;99.90;;;;;;5065739;28;20170;-70
2023/03/12 05:26:31;;;;;;;8.70;3.75;;;0.60;99.90;;;;;;5059137;28;20119;-69
2023/03/12 05:28:58;;;;;;;10.10;4.10;;;0.60;99.90;;;;;;5069470;28;20044;-69
2023/03/12 05:31:25;;;;;;;7.57;4.00;;;0.60;99.90;;;;;;5063816;28;20405;-69
2023/03/12 05:33:51;;;;;;;10.32;3.95;;;0.60;99.90;;;;;;5066129;28;20083;-71
2023/03/12 05:36:17;;;;;;;9.27;4.55;;;0.60;99.90;;;;;;5069512;28;20047;-71
2023/03/12 05:38:43;;;;;;;8.80;3.97;;;0.60;99.90;;;;;;5068353;28;20040;-70
2023/03/12 05:41:21;;;;;;;7.95;3.53;;;0.60;99.90;;;;;;5065643;28;20049;-70
2023/03/12 05:43:46;;;;;;;8.82;3.85;;;0.60;99.90;;;;;;5070288;28;20413;-70
2023/03/12 05:46:12;;;;;;;9.55;4.57;;;0.60;99.90;;;;;;5066746;28;20048;-71
2023/03/12 05:48:38;;;;;;;8.10;3.72;;;0.60;99.90;;;;;;5069115;28;20090;-69
2023/03/12 05:51:03;;;;;;;13.77;4.50;;;0.70;99.90;;;;;;5067574;28;20459;-70
2023/03/12 05:53:29;;;;;;;7.55;3.95;;;0.60;99.90;;;;;;5065710;28;20485;-70
2023/03/12 05:56:00;;;;;;;10.80;4.78;;;0.70;99.90;;;;;;5062563;28;20425;-70
2023/03/12 05:58:26;;;;;;;9.30;4.32;;;0.70;99.90;;;;;;5068177;28;20439;-70
2023/03/12 06:00:52;;;;;;;14.68;4.30;;;0.70;99.90;;;;;;5059642;28;20120;-70
2023/03/12 06:03:17;;;;;;;8.20;4.15;;;0.70;99.90;;;;;;5062342;28;20033;-69
2023/03/12 06:05:43;;;;;;;8.48;4.22;;;0.80;99.90;;;;;;5070975;28;20094;-70
2023/03/12 06:08:09;;;;;;;11.95;4.05;;;0.70;99.90;;;;;;5064434;28;20040;-70
2023/03/12 06:10:37;;;;;;;10.57;4.10;;;0.80;99.90;;;;;;5071072;28;20052;-69
2023/03/12 06:13:04;;;;;;;11.55;4.32;;;0.80;99.90;;;;;;5070968;28;20082;-70
2023/03/12 06:15:29;;;;;;;10.50;4.07;;;0.80;99.90;;;;;;5066603;28;20045;-70
2023/03/12 06:17:55;;;;;;;10.10;4.60;;;0.80;99.90;;;;;;5071746;28;20046;-69
2023/03/12 06:20:21;;;;;;;9.85;4.13;;;1.10;99.90;;;;;;5050914;28;20056;-70
2023/03/12 06:22:47;;;;;;;8.68;4.00;;;0.90;99.90;;;;;;5070899;28;20093;-70
2023/03/12 06:25:13;;;;;;;9.93;3.95;;;0.90;99.90;;;;;;5060564;28;20175;-70
2023/03/12 06:27:39;;;;;;;13.18;4.40;;;0.90;99.90;;;;;;5063738;28;20433;-70
2023/03/12 06:30:06;;;;;;;13.40;4.88;;;1.00;99.90;;;;;;5068491;28;20049;-68
2023/03/12 06:32:32;;;;;;;8.90;4.22;;;0.90;99.90;;;;;;5065327;28;20059;-69
2023/03/12 06:34:59;;;;;;;9.13;4.22;;;1.00;99.90;;;;;;5072883;28;20489;-68
2023/03/12 06:37:25;;;;;;;10.80;4.63;;;1.00;99.90;;;;;;5072727;28;20067;-69
2023/03/12 06:39:51;;;;;;;9.23;4.28;;;1.00;99.90;;;;;;5066806;28;20033;-69
2023/03/12 06:42:18;;;;;;;11.63;4.80;;;1.00;99.90;;;;;;5064538;28;20136;-68
2023/03/12 06:44:44;;;;;;;12.50;4.78;;;1.10;99.90;;;;;;5064720;28;20041;-68
2023/03/12 06:47:10;;;;;;;12.48;4.93;;;1.10;99.90;;;;;;5064464;28;20041;-69
2023/03/12 06:49:36;;;;;;;14.45;5.28;;;1.10;99.90;;;;;;5064087;28;20409;-69
2023/03/12 06:52:02;;;;;;;16.73;5.00;;;1.10;99.90;;;;;;5070593;28;20052;-69
2023/03/12 06:54:28;;;;;;;7.65;4.50;;;1.20;99.90;;;;;;5072544;28;20437;-69
2023/03/12 06:56:53;;;;;;;9.07;4.55;;;1.10;99.90;;;;;;5070507;28;20105;-69
2023/03/12 06:59:20;;;;;;;9.55;4.82;;;1.20;99.90;;;;;;5066775;28;20041;-69
2023/03/12 07:01:47;;;;;;;10.73;4.70;;;1.20;99.90;;;;;;5070538;28;20084;-69
2023/03/12 07:04:13;;;;;;;8.23;4.70;;;1.20;99.90;;;;;;5069003;28;20048;-69
2023/03/12 07:06:38;;;;;;;12.80;5.53;;;1.20;99.90;;;;;;5064727;28;20036;-69
2023/03/12 07:09:05;;;;;;;9.75;4.93;;;1.30;99.90;;;;;;5067311;28;20040;-69
2023/03/12 07:11:31;;;;;;;13.30;5.85;;;1.30;99.90;;;;;;5070888;28;20054;-69
2023/03/12 07:13:56;;;;;;;11.60;4.88;;;1.40;99.90;;;;;;5067256;28;20041;-69
2023/03/12 07:16:22;;;;;;;11.98;5.28;;;1.40;99.90;;;;;;5065836;28;20079;-69
2023/03/12 07:18:48;;;;;;;14.50;5.43;;;1.40;99.90;;;;;;5066647;28;20045;-69
2023/03/12 07:21:21;;;;;;;9.02;5.30;;;1.40;99.90;;;;;;5068476;28;20036;-69
2023/03/12 07:23:50;;;;;;;14.07;6.03;;;1.40;99.90;;;;;;5062647;28;20053;-69
2023/03/12 07:26:16;;;;;;;15.95;6.35;;;1.40;99.90;;;;;;5068426;28;20044;-69
2023/03/12 07:28:42;;;;;;;18.02;6.05;;;1.40;99.90;;;;;;5070062;28;20113;-69
2023/03/12 07:31:07;;;;;;;12.30;6.25;;;1.40;99.90;;;;;;5069103;28;20115;-69
2023/03/12 07:33:33;;;;;;;12.38;6.13;;;1.40;99.90;;;;;;5064563;28;20051;-69
2023/03/12 07:35:59;;;;;;;14.50;6.72;;;1.40;99.90;;;;;;5067126;28;20048;-70
2023/03/12 07:38:25;;;;;;;9.98;6.18;;;1.40;99.90;;;;;;5067709;28;20037;-70
2023/03/12 07:40:56;;;;;;;11.35;6.57;;;1.40;99.90;;;;;;5072197;28;20037;-69
2023/03/12 07:43:22;;;;;;;11.25;6.75;;;1.40;99.90;;;;;;5074070;28;20044;-69
2023/03/12 07:45:48;;;;;;;18.27;7.75;;;1.40;99.90;;;;;;5066628;28;20048;-70
2023/03/12 07:48:14;;;;;;;11.30;7.20;;;1.40;99.90;;;;;;5070836;28;20048;-69
2023/03/12 07:50:40;;;;;;;14.50;7.85;;;1.40;99.90;;;;;;5071167;28;20585;-69
2023/03/12 07:53:06;;;;;;;12.75;7.85;;;1.40;99.90;;;;;;5061612;28;20100;-70
2023/03/12 07:55:36;;;;;;;12.75;7.75;;;1.40;99.90;;;;;;5073602;28;20053;-69
2023/03/12 07:58:02;;;;;;;18.65;8.80;;;1.30;99.90;;;;;;5073926;28;20493;-69
2023/03/12 08:00:29;;;;;;;19.88;8.52;;;1.30;99.90;;;;;;5072750;28;20048;-70
2023/03/12 08:02:54;;;;;;;19.08;8.90;;;1.30;99.90;;;;;;5071140;28;20047;-70
2023/03/12 08:05:23;;;;;;;21.48;8.98;;;1.30;99.90;;;;;;5071647;28;20060;-70
2023/03/12 08:07:50;;;;;;;18.02;9.68;;;1.30;99.90;;;;;;5071125;28;20033;-70
2023/03/12 08:10:17;;;;;;;22.95;9.40;;;1.30;99.90;;;;;;5067535;28;20082;-70
2023/03/12 08:12:43;;;;;;;14.20;9.07;;;1.20;99.90;;;;;;5052241;28;20041;-70
2023/03/12 08:15:11;;;;;;;19.55;9.30;;;1.20;99.90;;;;;;5070362;28;20048;-69
2023/03/12 08:17:37;;;;;;;20.05;9.80;;;1.20;99.90;;;;;;5070325;28;20036;-70
2023/03/12 08:20:04;;;;;;;13.57;9.50;;;1.30;99.90;;;;;;5074050;28;20501;-70
2023/03/12 08:22:30;;;;;;;22.10;11.00;;;1.20;99.90;;;;;;5070893;28;20372;-71
2023/03/12 08:24:56;;;;;;;20.25;11.23;;;1.20;99.90;;;;;;5073142;28;20063;-71
2023/03/12 08:27:21;;;;;;;20.33;10.48;;;1.20;99.90;;;;;;5065039;28;20511;-71
2023/03/12 08:29:47;;;;;;;21.40;10.70;;;1.20;99.90;;;;;;5069377;28;20045;-71
2023/03/12 08:32:13;;;;;;;17.25;10.27;;;1.10;99.90;;;;;;5070673;28;20044;-72
2023/03/12 08:34:39;;;;;;;19.52;10.77;;;1.10;99.90;;;;;;5069859;28;20374;-71
2023/03/12 08:37:05;;;;;;;16.00;11.15;;;1.10;99.90;;;;;;5065833;28;20490;-71
2023/03/12 08:39:31;;;;;;;15.20;10.55;;;1.10;99.90;;;;;;5066548;28;20040;-72
2023/03/12 08:41:57;;;;;;;18.83;10.57;;;1.10;99.90;;;;;;5071309;28;20115;-72
2023/03/12 08:44:23;;;;;;;19.38;10.55;;;1.20;99.90;;;;;;5057181;28;20120;-71
2023/03/12 08:46:50;;;;;;;17.63;10.85;;;1.20;99.90;;;;;;5059728;28;20094;-72
2023/03/12 08:49:16;;;;;;;20.88;10.93;;;1.30;99.90;;;;;;5072771;28;20045;-73
2023/03/12 08:51:42;;;;;;;17.70;10.45;;;1.50;99.90;;;;;;5070101;28;20057;-71
2023/03/12 08:54:08;;;;;;;18.05;10.40;;;1.30;99.90;;;;;;5066224;28;20431;-71
2023/03/12 08:56:35;;;;;;;18.83;10.77;;;1.40;99.90;;;;;;5073422;28;20037;-72
2023/03/12 08:59:01;;;;;;;19.23;9.85;;;1.40;99.90;;;;;;5068915;28;20123;-73
2023/03/12 09:01:28;;;;;;;16.92;10.27;;;1.40;99.90;;;;;;5070076;28;20068;-72
2023/03/12 09:03:54;;;;;;;16.15;10.32;;;1.50;99.90;;;;;;5072799;28;20217;-72
2023/03/12 09:06:20;;;;;;;16.13;9.73;;;1.50;99.90;;;;;;5063122;28;20399;-71
2023/03/12 09:08:46;;;;;;;16.27;10.20;;;1.50;99.90;;;;;;5070342;28;20040;-71
2023/03/12 09:11:14;;;;;;;15.50;9.90;;;1.60;99.90;;;;;;5072158;28;20037;-71
2023/03/12 09:13:40;;;;;;;20.98;10.13;;;1.60;99.90;;;;;;5069475;28;20040;-71
2023/03/12 09:16:07;;;;;;;21.10;10.95;;;1.60;99.90;;;;;;5071506;28;20040;-72
2023/03/12 09:18:33;;;;;;;23.40;11.15;;;1.60;99.90;;;;;;5072559;28;20037;-71
2023/03/12 09:20:59;;;;;;;23.20;11.75;;;1.60;99.90;;;;;;5070788;28;20041;-72
2023/03/12 09:23:26;;;;;;;18.67;12.48;;;1.50;99.90;;;;;;5065667;28;20087;-72
2023/03/12 09:25:53;;;;;;;17.73;12.18;;;1.50;99.90;;;;;;5051253;28;20040;-71
2023/03/12 09:28:19;;;;;;;24.65;12.05;;;1.50;99.90;;;;;;5063411;28;20052;-71
2023/03/12 09:30:45;;;;;;;21.40;12.55;;;1.50;99.90;;;;;;5062036;28;20036;-72
2023/03/12 09:33:11;;;;;;;28.67;15.48;;;1.50;99.90;;;;;;5072741;28;20056;-72
2023/03/12 09:35:37;;;;;;;24.08;12.38;;;1.40;99.90;;;;;;5071620;28;20497;-72
2023/03/12 09:38:04;;;;;;;26.35;12.90;;;1.40;99.90;;;;;;5070922;28;20036;-72
2023/03/12 09:40:32;;;;;;;21.17;12.63;;;1.40;99.90;;;;;;5061771;28;20037;-71
2023/03/12 09:43:12;;;;;;;16.92;11.90;;;1.40;99.90;;;;;;5069282;28;20037;-70
2023/03/12 09:45:42;;;;;;;17.15;10.55;;;1.40;99.90;;;;;;5071729;28;20058;-72
2023/03/12 09:48:16;;;;;;;19.98;11.00;;;1.40;99.90;;;;;;5071749;28;20163;-72
2023/03/12 09:50:46;;;;;;;15.77;10.05;;;1.50;99.90;;;;;;5069108;28;20075;-72
2023/03/12 09:53:32;;;;;;;17.40;11.27;;;1.50;99.90;;;;;;5069620;28;20436;-72
2023/03/12 09:56:01;;;;;;;24.23;12.23;;;1.50;99.90;;;;;;5072933;28;20052;-71
2023/03/12 09:58:29;;;;;;;15.90;11.30;;;1.60;99.90;;;;;;5071154;28;20033;-71
2023/03/12 10:01:11;;;;;;;18.98;12.05;;;1.60;99.90;;;;;;5070759;28;20129;-71
2023/03/12 10:04:01;;;;;;;21.08;13.30;;;1.60;99.90;;;;;;5072121;28;20509;-72
2023/03/12 10:07:08;;;;;;;20.27;12.10;;;1.60;99.90;;;;;;5070636;28;20040;-71
2023/03/12 10:09:43;;;;;;;18.42;12.18;;;1.60;99.90;;;;;;5067926;28;20576;-70
2023/03/12 10:12:11;;;;;;;21.67;12.43;;;1.70;99.90;;;;;;5070726;28;20517;-70
2023/03/12 10:14:42;;;;;;;;;;;1.70;99.90;;;;;;5071483;28;20494;-71
2023/03/12 10:17:29;;;;;;;19.85;11.75;;;1.70;99.90;;;;;;5070126;28;20003;-71
2023/03/12 10:20:02;;;;;;;23.80;12.60;;;1.70;99.90;;;;;;5071745;28;20044;-71
2023/03/12 10:22:56;;;;;;;17.58;12.25;;;1.80;99.90;;;;;;5071577;28;20490;-71
2023/03/12 10:25:29;;;;;;;18.10;12.48;;;1.80;99.90;;;;;;5072394;28;20516;-71
2023/03/12 10:28:04;;;;;;;22.13;13.32;;;1.90;99.90;;;;;;5071168;28;20385;-72
2023/03/12 10:30:32;;;;;;;21.48;12.88;;;1.90;99.90;;;;;;5052796;28;20056;-72
2023/03/12 10:33:05;;;;;;;19.85;12.60;;;2.00;99.90;;;;;;5066154;28;20066;-72
2023/03/12 10:35:31;;;;;;;19.63;12.90;;;2.00;99.90;;;;;;5071028;28;20032;-72
2023/03/12 10:38:02;;;;;;;20.33;12.82;;;2.90;99.90;;;;;;5061494;28;20052;-71
2023/03/12 10:40:33;;;;;;;17.77;12.23;;;2.10;99.90;;;;;;5066774;28;20051;-71
2023/03/12 10:42:59;;;;;;;17.55;12.88;;;2.10;99.90;;;;;;5071950;28;20057;-71
2023/03/12 10:45:48;;;;;;;22.48;14.15;;;2.10;99.90;;;;;;5069605;28;20094;-71
2023/03/12 10:48:24;;;;;;;18.63;12.20;;;2.10;99.90;;;;;;5074627;28;20058;-71
2023/03/12 10:51:08;;;;;;;21.27;14.10;;;2.30;99.90;;;;;;5073063;28;20485;-72
2023/03/12 10:53:55;;;;;;;26.52;13.77;;;2.30;99.90;;;;;;5068066;28;20037;-72
2023/03/12 10:56:21;;;;;;;19.10;13.95;;;2.30;99.90;;;;;;5047866;28;20041;-72
2023/03/12 10:58:49;;;;;;;19.88;13.35;;;2.40;99.90;;;;;;5051319;28;20489;-73
2023/03/12 11:01:19;;;;;;;24.55;13.85;;;2.40;99.90;;;;;;5054063;28;20065;-70
2023/03/12 11:03:45;;;;;;;20.33;13.68;;;2.40;99.90;;;;;;5058345;28;20067;-70
2023/03/12 11:06:22;;;;;;;21.95;14.25;;;2.40;99.90;;;;;;5067470;28;20042;-70
2023/03/12 11:09:08;;;;;;;22.25;13.88;;;2.40;99.90;;;;;;5069875;28;20044;-70
2023/03/12 11:11:35;;;;;;;20.80;13.55;;;2.40;99.90;;;;;;5052330;28;20051;-70
2023/03/12 11:14:16;;;;;;;21.02;14.27;;;2.40;99.90;;;;;;5052279;28;20482;-70
2023/03/12 11:16:42;;;;;;;26.05;15.23;;;2.40;99.90;;;;;;5057810;28;20490;-71
2023/03/12 11:19:12;;;;;;;26.02;15.50;;;2.40;99.90;;;;;;5055507;28;20052;-71
2023/03/12 11:21:41;;;;;;;20.23;14.10;;;2.50;99.90;;;;;;5055898;28;20048;-71
2023/03/12 11:24:12;;;;;;;24.52;16.02;;;2.50;99.90;;;;;;5052609;28;20059;-71
2023/03/12 11:27:10;;;;;;;23.55;14.18;;;2.60;99.90;;;;;;5065835;28;20049;-71
2023/03/12 11:29:42;;;;;;;22.00;15.13;;;2.60;99.90;;;;;;5061347;28;20083;-71
2023/03/12 11:32:37;;;;;;;28.80;15.32;;;2.60;99.90;;;;;;5075131;28;20044;-71
2023/03/12 11:35:10;;;;;;;21.83;13.95;;;2.70;99.90;;;;;;5058262;28;20044;-72
2023/03/12 11:38:26;;;;;;;24.35;15.48;;;2.70;99.90;;;;;;5070022;28;20048;-71
2023/03/12 11:41:00;;;;;;;26.42;14.55;;;2.80;99.90;;;;;;5089994;28;20039;-71
2023/03/12 11:43:54;;;;;;;28.27;16.83;;;2.90;99.90;;;;;;5062055;28;20061;-71
2023/03/12 11:46:33;;;;;;;27.88;14.98;;;2.90;99.90;;;;;;5076077;28;20047;-72
2023/03/12 11:49:13;;;;;;;29.90;16.30;;;3.00;99.90;;;;;;5072574;28;20055;-72
2023/03/12 11:52:09;;;;;;;21.63;15.48;;;3.00;99.90;;;;;;5068353;28;20040;-72
2023/03/12 11:54:57;;;;;;;33.95;17.77;;;3.10;99.90;;;;;;5070117;28;20114;-71
2023/03/12 11:57:31;;;;;;;28.63;16.80;;;3.20;99.90;;;;;;5074733;28;20058;-69
2023/03/12 12:00:19;;;;;;;25.98;14.73;;;3.30;99.90;;;;;;5067593;28;20036;-71
2023/03/12 12:02:54;;;;;;;25.00;15.52;;;3.40;99.90;;;;;;5074745;28;20051;-71
2023/03/12 12:05:45;;;;;;;23.30;15.95;;;3.40;99.90;;;;;;5074382;28;20084;-72
2023/03/12 12:08:31;;;;;;;28.90;16.33;;;3.50;99.90;;;;;;5075683;28;20068;-72
2023/03/12 12:11:04;;;;;;;31.77;17.77;;;3.60;99.90;;;;;;5056623;28;20046;-71
2023/03/12 12:14:00;;;;;;;23.90;15.23;;;3.70;99.90;;;;;;5064993;28;20041;-72
2023/03/12 12:16:54;;;;;;;26.20;15.77;;;3.80;99.90;;;;;;5072370;28;20040;-72
2023/03/12 12:19:31;;;;;;;29.00;15.60;;;3.80;99.90;;;;;;5072517;28;20039;-70
2023/03/12 12:22:26;;;;;;;25.30;15.85;;;4.40;99.90;;;;;;5070465;28;20135;-72
2023/03/12 12:25:11;;;;;;;27.60;16.33;;;3.90;99.90;;;;;;5076920;28;20051;-71
2023/03/12 12:28:06;;;;;;;25.80;15.88;;;4.00;99.90;;;;;;5089740;28;20044;-71
2023/03/12 12:30:45;;;;;;;24.95;15.30;;;4.10;99.90;;;;;;5076672;28;20556;-71
2023/03/12 12:33:34;;;;;;;25.30;16.27;;;4.20;99.90;;;;;;5073970;28;20040;-72
2023/03/12 12:36:01;;;;;;;28.98;17.27;;;4.30;99.90;;;;;;5064282;28;20041;-71
2023/03/12 12:39:04;;;;;;;30.65;16.63;;;4.40;99.90;;;;;;5066295;28;20043;-71
2023/03/12 12:41:37;;;;;;;23.50;14.50;;;4.50;99.90;;;;;;5068401;28;20058;-71
2023/03/12 12:44:16;;;;;;;24.88;15.63;;;4.50;99.90;;;;;;5069159;28;20529;-71
2023/03/12 12:46:47;;;;;;;28.50;16.05;;;4.60;99.90;;;;;;5072604;28;20044;-71
2023/03/12 12:49:21;;;;;;;23.40;15.70;;;4.70;99.90;;;;;;5065319;28;20128;-71
2023/03/12 12:51:57;;;;;;;28.65;17.23;;;4.80;99.90;;;;;;5067891;28;20055;-71
2023/03/12 12:54:53;;;;;;;26.67;16.95;;;5.00;99.90;;;;;;5065831;28;20075;-71
2023/03/12 12:57:28;;;;;;;28.60;17.52;;;5.10;99.90;;;;;;5071035;28;20044;-70